Time;durP1;ratioP1;P1;durP2;ratioP2;P2;SDS_P1;SDS_P2;PMS_P1;PMS_P2;Temp;Humidity;BMP_temperature;BMP_pressure;BME280_temperature;BME280_humidity;BME280_pressure;Samples;Min_cycle;Max_cycle;Signal;HPM_P1;HPM_P2
2023/03/09 00:00:27;;;;;;;1999.90;999.90;;;9.40;99.90;;;;;;5096951;28;20093;-73
2023/03/09 00:02:53;;;;;;;1999.90;999.90;;;9.40;99.90;;;;;;5094882;28;20040;-73
2023/03/09 00:05:20;;;;;;;1999.90;999.90;;;9.40;99.90;;;;;;5096865;28;20040;-73
2023/03/09 00:07:46;;;;;;;1999.90;999.90;;;9.40;99.90;;;;;;5095378;28;20079;-73
2023/03/09 00:10:13;;;;;;;1999.90;999.90;;;9.40;99.90;;;;;;5097334;28;20043;-73
2023/03/09 00:12:39;;;;;;;1999.90;999.90;;;9.40;99.90;;;;;;5097127;28;20032;-73
2023/03/09 00:15:06;;;;;;;1999.90;999.90;;;9.40;99.90;;;;;;5096688;28;20029;-73
2023/03/09 00:17:31;;;;;;;1999.90;999.90;;;9.40;99.90;;;;;;5096968;28;20117;-74
2023/03/09 00:20:06;;;;;;;1999.90;999.90;;;9.40;99.90;;;;;;5097261;28;20437;-73
2023/03/09 00:22:31;;;;;;;1999.90;999.90;;;9.40;99.90;;;;;;5096962;28;20039;-74
2023/03/09 00:24:57;;;;;;;1999.90;999.90;;;9.30;99.90;;;;;;5096336;28;20024;-74
2023/03/09 00:27:23;;;;;;;1999.90;999.90;;;9.40;99.90;;;;;;5087510;28;20036;-74
2023/03/09 00:29:48;;;;;;;1999.90;999.90;;;9.40;99.90;;;;;;5074631;28;20041;-74
2023/03/09 00:32:14;;;;;;;1999.90;999.90;;;9.50;99.90;;;;;;5074631;28;20037;-74
2023/03/09 00:34:39;;;;;;;1999.90;999.90;;;9.50;99.90;;;;;;5075325;28;20056;-74
2023/03/09 00:37:05;;;;;;;1999.90;999.90;;;9.50;99.90;;;;;;5074739;28;20107;-74
2023/03/09 00:39:30;;;;;;;1999.90;999.90;;;9.50;99.90;;;;;;5076469;28;20041;-74
2023/03/09 00:41:56;;;;;;;1999.90;999.90;;;9.50;99.90;;;;;;5076316;28;20037;-74
2023/03/09 00:44:21;;;;;;;1999.90;999.90;;;9.50;99.90;;;;;;5075802;28;20033;-74
2023/03/09 00:46:47;;;;;;;1999.90;999.90;;;9.40;99.90;;;;;;5076105;28;20035;-74
2023/03/09 00:49:14;;;;;;;1999.90;999.90;;;9.40;99.90;;;;;;5076333;28;20095;-74
2023/03/09 00:51:41;;;;;;;1999.90;999.90;;;9.40;99.90;;;;;;5075970;28;20036;-74
2023/03/09 00:54:07;;;;;;;1999.90;999.90;;;9.30;99.90;;;;;;5075633;28;20087;-74
2023/03/09 00:56:34;;;;;;;1999.90;999.90;;;9.30;99.90;;;;;;5075862;28;20035;-74
2023/03/09 00:59:00;;;;;;;1999.90;999.90;;;9.30;99.90;;;;;;5074320;28;20498;-74
2023/03/09 01:01:26;;;;;;;1999.90;999.90;;;9.20;99.90;;;;;;5075781;28;20033;-74
2023/03/09 01:03:52;;;;;;;1999.90;999.90;;;9.20;99.90;;;;;;5075290;28;20489;-74
2023/03/09 01:06:18;;;;;;;1999.90;999.90;;;9.10;99.90;;;;;;5075842;28;20079;-74
2023/03/09 01:08:45;;;;;;;1999.90;999.90;;;9.10;99.90;;;;;;5075821;28;20047;-74
2023/03/09 01:11:12;;;;;;;1999.90;999.90;;;9.10;99.90;;;;;;5075679;28;20048;-74
2023/03/09 01:13:38;;;;;;;1999.90;999.90;;;9.00;99.90;;;;;;5074684;28;20045;-74
2023/03/09 01:16:04;;;;;;;1999.90;999.90;;;9.00;99.90;;;;;;5073350;28;20036;-74
2023/03/09 01:18:30;;;;;;;1999.90;999.90;;;8.90;99.90;;;;;;5076345;28;20118;-74
2023/03/09 01:20:56;;;;;;;1999.90;999.90;;;8.90;99.90;;;;;;5079990;28;20032;-73
2023/03/09 01:23:22;;;;;;;1999.90;999.90;;;8.80;99.90;;;;;;5075818;28;20033;-74
2023/03/09 01:25:47;;;;;;;1999.90;999.90;;;8.70;99.90;;;;;;5075239;28;20041;-74
2023/03/09 01:28:13;;;;;;;1999.90;999.90;;;8.70;99.90;;;;;;5075179;28;20041;-74
2023/03/09 01:30:38;;;;;;;1999.90;999.90;;;8.70;99.90;;;;;;5075765;28;20029;-73
2023/03/09 01:33:04;;;;;;;1999.90;999.90;;;8.70;99.90;;;;;;5074958;28;20095;-74
2023/03/09 01:35:29;;;;;;;1999.90;999.90;;;8.70;99.90;;;;;;5075012;28;20414;-74
2023/03/09 01:37:55;;;;;;;1999.90;999.90;;;8.70;99.90;;;;;;5075288;28;20558;-73
2023/03/09 01:40:24;;;;;;;1999.90;999.90;;;8.70;99.90;;;;;;5075520;28;20474;-73
2023/03/09 01:42:57;;;;;;;1999.90;999.90;;;8.80;99.90;;;;;;5073359;28;20029;-74
2023/03/09 01:45:29;;;;;;;1999.90;999.90;;;8.80;99.90;;;;;;5074713;28;20120;-74
2023/03/09 01:47:58;;;;;;;1999.90;999.90;;;8.80;99.90;;;;;;5075104;28;20041;-74
2023/03/09 01:50:29;;;;;;;1999.90;999.90;;;8.90;99.90;;;;;;5075234;28;20021;-74
2023/03/09 01:52:57;;;;;;;1999.90;999.90;;;9.00;99.90;;;;;;5075176;28;20511;-74
2023/03/09 01:55:29;;;;;;;1999.90;999.90;;;9.10;99.90;;;;;;5074853;28;20678;-74
2023/03/09 01:58:01;;;;;;;1999.90;999.90;;;9.20;99.90;;;;;;5074853;28;20037;-74
2023/03/09 02:00:28;;;;;;;1999.90;999.90;;;9.40;99.90;;;;;;5074907;28;20036;-74
2023/03/09 02:03:01;;;;;;;1999.90;999.90;;;9.50;99.90;;;;;;5073545;28;20029;-74
2023/03/09 02:05:48;;;;;;;1999.90;999.90;;;9.50;99.90;;;;;;5074760;28;20061;-74
2023/03/09 02:08:13;;;;;;;1999.90;999.90;;;9.50;99.90;;;;;;5075086;28;20120;-74
2023/03/09 02:10:48;;;;;;;1999.90;999.90;;;9.50;99.90;;;;;;5074834;28;20112;-74
2023/03/09 02:13:19;;;;;;;1999.90;999.90;;;9.60;99.90;;;;;;5074972;28;20474;-74
2023/03/09 02:15:45;;;;;;;1999.90;999.90;;;9.60;99.90;;;;;;5074299;28;20028;-74
2023/03/09 02:18:11;;;;;;;1999.90;999.90;;;9.60;99.90;;;;;;5074607;28;20037;-74
2023/03/09 02:20:53;;;;;;;1999.90;999.90;;;9.60;99.90;;;;;;5074881;28;20071;-74
2023/03/09 02:23:49;;;;;;;1999.90;999.90;;;9.60;99.90;;;;;;5073448;28;20040;-74
2023/03/09 02:26:23;;;;;;;1999.90;999.90;;;9.60;99.90;;;;;;5073839;28;20033;-74
2023/03/09 02:28:49;;;;;;;1999.90;999.90;;;9.60;99.90;;;;;;5086196;28;20098;-74
2023/03/09 02:31:16;;;;;;;1999.90;999.90;;;9.70;99.90;;;;;;5095183;28;20083;-74
2023/03/09 02:33:41;;;;;;;1999.90;999.90;;;9.60;99.90;;;;;;5094207;28;20043;-74
2023/03/09 02:36:07;;;;;;;1999.90;999.90;;;9.60;99.90;;;;;;5093306;28;20382;-74
2023/03/09 02:38:33;;;;;;;1999.90;999.90;;;9.60;99.90;;;;;;5094678;28;20494;-74
2023/03/09 02:41:01;;;;;;;1999.90;999.90;;;9.60;99.90;;;;;;5094857;28;20032;-74
2023/03/09 02:43:37;;;;;;;1999.90;999.90;;;9.50;99.90;;;;;;5094303;28;20060;-74
2023/03/09 02:46:03;;;;;;;1999.90;999.90;;;9.50;99.90;;;;;;5094474;28;20025;-74
2023/03/09 02:48:29;;;;;;;1999.90;999.90;;;9.50;99.90;;;;;;5094785;28;20405;-74
2023/03/09 02:50:54;;;;;;;1999.90;999.90;;;9.50;99.90;;;;;;5094454;28;20486;-74
2023/03/09 02:53:20;;;;;;;1999.90;999.90;;;9.50;99.90;;;;;;5094599;28;20085;-74
2023/03/09 02:55:45;;;;;;;1999.90;999.90;;;9.60;99.90;;;;;;5094559;28;20029;-74
2023/03/09 02:58:11;;;;;;;1999.90;999.90;;;9.60;99.90;;;;;;5094576;28;20047;-74
2023/03/09 03:00:37;;;;;;;1999.90;999.90;;;9.60;99.90;;;;;;5094541;28;20111;-74
2023/03/09 03:03:02;;;;;;;1999.90;999.90;;;9.50;99.90;;;;;;5092918;28;20048;-74
2023/03/09 03:05:28;;;;;;;1999.90;999.90;;;9.50;99.90;;;;;;5094150;28;20033;-74
2023/03/09 03:07:54;;;;;;;1999.90;999.90;;;9.50;99.90;;;;;;5094193;28;20041;-74
2023/03/09 03:10:19;;;;;;;1999.90;999.90;;;9.40;99.90;;;;;;5094430;28;20033;-74
2023/03/09 03:12:45;;;;;;;1999.90;999.90;;;9.40;99.90;;;;;;5093157;28;20032;-74
2023/03/09 03:15:11;;;;;;;1999.90;999.90;;;9.30;99.90;;;;;;5093917;28;20112;-74
2023/03/09 03:17:37;;;;;;;1999.90;999.90;;;9.30;99.90;;;;;;5094413;28;20037;-74
2023/03/09 03:20:04;;;;;;;1999.90;999.90;;;9.20;99.90;;;;;;5094333;28;20390;-74
2023/03/09 03:22:30;;;;;;;1999.90;999.90;;;9.20;99.90;;;;;;5093795;28;20029;-74
2023/03/09 03:24:56;;;;;;;1999.90;999.90;;;9.20;99.90;;;;;;5095099;28;20033;-74
2023/03/09 03:27:21;;;;;;;1999.90;999.90;;;9.10;99.90;;;;;;5094221;28;20043;-74
2023/03/09 03:29:50;;;;;;;1999.90;999.90;;;9.00;99.90;;;;;;5092462;28;20082;-74
2023/03/09 03:32:15;;;;;;;1999.90;999.90;;;8.90;99.90;;;;;;5092799;28;20409;-74
2023/03/09 03:34:41;;;;;;;1999.90;999.90;;;8.80;99.90;;;;;;5091998;28;20037;-74
2023/03/09 03:37:06;;;;;;;1999.90;999.90;;;8.70;99.90;;;;;;5093854;28;20029;-74
2023/03/09 03:39:32;;;;;;;1999.90;999.90;;;8.70;99.90;;;;;;5097684;28;20036;-75
2023/03/09 03:41:57;;;;;;;1999.90;999.90;;;8.60;99.90;;;;;;5097730;28;20348;-75
2023/03/09 03:44:23;;;;;;;1999.90;999.90;;;8.60;99.90;;;;;;5097000;28;20386;-75
2023/03/09 03:46:48;;;;;;;1999.90;999.90;;;8.50;99.90;;;;;;5097131;28;20449;-74
2023/03/09 03:49:14;;;;;;;1999.90;999.90;;;8.50;99.90;;;;;;5097391;28;20489;-75
2023/03/09 03:51:39;;;;;;;1999.90;999.90;;;8.50;99.90;;;;;;5096004;28;20032;-75
2023/03/09 03:54:05;;;;;;;1999.90;999.90;;;8.50;99.90;;;;;;5095187;28;20572;-75
2023/03/09 03:56:32;;;;;;;1999.90;999.90;;;8.40;99.90;;;;;;5097514;28;20490;-75
2023/03/09 03:58:57;;;;;;;1999.90;999.90;;;8.40;99.90;;;;;;5097148;28;20035;-75
2023/03/09 04:01:23;;;;;;;1999.90;999.90;;;8.40;99.90;;;;;;5097192;28;20032;-75
2023/03/09 04:03:48;;;;;;;1999.90;999.90;;;8.40;99.90;;;;;;5096866;28;20040;-75
2023/03/09 04:06:14;;;;;;;1999.90;999.90;;;8.40;99.90;;;;;;5097183;28;20029;-75
2023/03/09 04:08:39;;;;;;;1999.90;999.90;;;8.40;99.90;;;;;;5097053;28;20037;-75
2023/03/09 04:11:07;;;;;;;1999.90;999.90;;;8.40;99.90;;;;;;5097125;28;20037;-75
2023/03/09 04:13:32;;;;;;;1999.90;999.90;;;8.40;99.90;;;;;;5096973;28;20035;-74
2023/03/09 04:15:58;;;;;;;1999.90;999.90;;;8.40;99.90;;;;;;5097414;28;20036;-75
2023/03/09 04:18:23;;;;;;;1999.90;999.90;;;8.40;99.90;;;;;;5097470;28;20041;-74
2023/03/09 04:20:49;;;;;;;1999.90;999.90;;;8.40;99.90;;;;;;5097562;28;20035;-74
2023/03/09 04:23:14;;;;;;;1999.90;999.90;;;8.40;99.90;;;;;;5095521;28;20039;-74
2023/03/09 04:25:40;;;;;;;1999.90;999.90;;;8.40;99.90;;;;;;5096732;28;20036;-75
2023/03/09 04:28:06;;;;;;;1999.90;999.90;;;8.40;99.90;;;;;;5095345;28;20072;-75
2023/03/09 04:30:31;;;;;;;1999.90;999.90;;;8.40;99.90;;;;;;5096736;28;20040;-75
2023/03/09 04:32:57;;;;;;;1999.90;999.90;;;8.40;99.90;;;;;;5096695;28;20037;-74
2023/03/09 04:35:22;;;;;;;1999.90;999.90;;;8.40;99.90;;;;;;5094401;22;20107;-75
2023/03/09 04:37:48;;;;;;;1999.90;999.90;;;8.30;99.90;;;;;;5074431;28;20037;-76
2023/03/09 04:40:14;;;;;;;1999.90;999.90;;;8.40;99.90;;;;;;5076462;28;20041;-76
2023/03/09 04:42:40;;;;;;;1999.90;999.90;;;8.40;99.90;;;;;;5075000;28;20422;-76
2023/03/09 04:45:06;;;;;;;1999.90;999.90;;;8.40;99.90;;;;;;5074492;28;20037;-76
2023/03/09 04:47:32;;;;;;;1999.90;999.90;;;8.40;99.90;;;;;;5076083;28;20064;-76
2023/03/09 04:49:58;;;;;;;1999.90;999.90;;;8.40;99.90;;;;;;5076012;28;20534;-76
2023/03/09 04:52:24;;;;;;;1999.90;999.90;;;8.30;99.90;;;;;;5075675;28;20120;-75
2023/03/09 04:54:50;;;;;;;1999.90;999.90;;;8.30;99.90;;;;;;5075487;28;20526;-76
2023/03/09 04:57:15;;;;;;;1999.90;999.90;;;8.40;99.90;;;;;;5076209;28;20039;-76
2023/03/09 04:59:41;;;;;;;1999.90;999.90;;;8.40;99.90;;;;;;5076154;28;20398;-76
2023/03/09 05:02:07;;;;;;;1999.90;999.90;;;8.40;99.90;;;;;;5076246;28;20090;-76
2023/03/09 05:04:33;;;;;;;1999.90;999.90;;;8.40;99.90;;;;;;5075722;28;20045;-76
2023/03/09 05:06:59;;;;;;;1999.90;999.90;;;8.50;99.90;;;;;;5074254;28;20477;-76
2023/03/09 05:09:25;;;;;;;1999.90;999.90;;;8.50;99.90;;;;;;5075683;28;20120;-76
2023/03/09 05:11:51;;;;;;;1999.90;999.90;;;8.50;99.90;;;;;;5076062;28;20482;-76
2023/03/09 05:14:18;;;;;;;1999.90;999.90;;;8.50;99.90;;;;;;5075365;28;20037;-76
2023/03/09 05:16:45;;;;;;;1999.90;999.90;;;8.60;99.90;;;;;;5074015;28;20083;-76
2023/03/09 05:19:11;;;;;;;1999.90;999.90;;;8.60;99.90;;;;;;5075960;28;20048;-76
2023/03/09 05:21:37;;;;;;;1999.90;999.90;;;8.60;99.90;;;;;;5075659;28;20029;-76
2023/03/09 05:24:03;;;;;;;1999.90;999.90;;;8.60;99.90;;;;;;5075192;28;20414;-76
2023/03/09 05:26:28;;;;;;;1999.90;999.90;;;8.50;99.90;;;;;;5075731;28;20036;-76
2023/03/09 05:28:54;;;;;;;1999.90;999.90;;;8.50;99.90;;;;;;5075370;28;20048;-76
2023/03/09 05:31:20;;;;;;;1999.90;999.90;;;8.50;99.90;;;;;;5075854;28;20123;-76
2023/03/09 05:33:45;;;;;;;1999.90;999.90;;;8.50;99.90;;;;;;5075116;28;20033;-76
2023/03/09 05:36:17;;;;;;;1999.90;999.90;;;8.50;99.90;;;;;;5075279;28;20037;-76
2023/03/09 05:38:43;;;;;;;1999.90;999.90;;;8.50;99.90;;;;;;5075467;28;20040;-76
2023/03/09 05:41:08;;;;;;;1999.90;999.90;;;8.50;99.90;;;;;;5076064;28;20103;-76
2023/03/09 05:43:35;;;;;;;1999.90;999.90;;;8.50;99.90;;;;;;5074803;28;20079;-76
2023/03/09 05:46:01;;;;;;;1999.90;999.90;;;8.50;99.90;;;;;;5073491;28;20101;-76
2023/03/09 05:48:27;;;;;;;1999.90;999.90;;;8.40;99.90;;;;;;5075240;28;20398;-76
2023/03/09 05:50:52;;;;;;;1999.90;999.90;;;8.40;99.90;;;;;;5075397;28;20040;-76
2023/03/09 05:53:18;;;;;;;1999.90;999.90;;;8.30;99.90;;;;;;5074877;28;20116;-75
2023/03/09 05:55:43;;;;;;;1999.90;999.90;;;8.20;99.90;;;;;;5074856;28;20033;-76
2023/03/09 05:58:09;;;;;;;1999.90;999.90;;;8.20;99.90;;;;;;5075239;28;20036;-76
2023/03/09 06:00:34;;;;;;;1999.90;999.90;;;8.10;99.90;;;;;;5074301;28;20091;-75
2023/03/09 06:03:00;;;;;;;1999.90;999.90;;;8.00;99.90;;;;;;5073782;28;20486;-76
2023/03/09 06:05:25;;;;;;;1999.90;999.90;;;8.00;99.90;;;;;;5074606;28;20037;-76
2023/03/09 06:07:51;;;;;;;1999.90;999.90;;;8.00;99.90;;;;;;5074665;28;20390;-76
2023/03/09 06:10:17;;;;;;;1999.90;999.90;;;8.00;99.90;;;;;;5074759;28;20482;-76
2023/03/09 06:12:43;;;;;;;1999.90;999.90;;;8.10;99.90;;;;;;5075002;28;20044;-77
2023/03/09 06:15:09;;;;;;;1999.90;999.90;;;8.20;99.90;;;;;;5069874;28;20372;-77
2023/03/09 06:17:35;;;;;;;1999.90;999.90;;;8.20;99.90;;;;;;5075153;28;20545;-77
2023/03/09 06:20:02;;;;;;;1999.90;999.90;;;8.30;99.90;;;;;;5074835;28;20183;-77
2023/03/09 06:22:27;;;;;;;1999.90;999.90;;;8.40;99.90;;;;;;5073436;28;20032;-75
2023/03/09 06:24:53;;;;;;;1999.90;999.90;;;8.40;99.90;;;;;;5074494;28;20033;-75
2023/03/09 06:27:18;;;;;;;1999.90;999.90;;;8.60;99.90;;;;;;5074927;28;20029;-76
2023/03/09 06:29:44;;;;;;;1999.90;999.90;;;8.60;99.90;;;;;;5074768;28;20041;-76
2023/03/09 06:32:09;;;;;;;1999.90;999.90;;;8.70;99.90;;;;;;5074818;28;20064;-76
2023/03/09 06:34:35;;;;;;;1999.90;999.90;;;8.80;99.90;;;;;;5073928;28;20414;-76
2023/03/09 06:37:01;;;;;;;1999.90;999.90;;;8.80;99.90;;;;;;5074697;28;20033;-76
2023/03/09 06:39:26;;;;;;;1999.90;999.90;;;8.90;99.90;;;;;;5074623;28;20041;-75
2023/03/09 06:41:52;;;;;;;1999.90;999.90;;;8.90;99.90;;;;;;5073224;28;20036;-75
2023/03/09 06:44:17;;;;;;;1999.90;999.90;;;8.90;99.90;;;;;;5073546;28;20037;-76
2023/03/09 06:46:43;;;;;;;1999.90;999.90;;;8.90;99.90;;;;;;5074477;28;20033;-75
2023/03/09 06:49:08;;;;;;;1999.90;999.90;;;8.90;99.90;;;;;;5074068;28;20044;-75
2023/03/09 06:51:34;;;;;;;1999.90;999.90;;;8.90;99.90;;;;;;5074869;28;20447;-75
2023/03/09 06:54:00;;;;;;;1999.90;999.90;;;8.90;99.90;;;;;;5073902;28;20041;-75
2023/03/09 06:56:26;;;;;;;1999.90;999.90;;;8.90;99.90;;;;;;5073267;28;20036;-75
2023/03/09 06:58:54;;;;;;;1999.90;999.90;;;9.00;99.90;;;;;;5074820;28;20092;-76
2023/03/09 07:01:20;;;;;;;1999.90;999.90;;;9.10;99.90;;;;;;5074979;28;20621;-76
2023/03/09 07:03:46;;;;;;;1999.90;999.90;;;9.20;99.90;;;;;;5074679;28;20443;-77
2023/03/09 07:06:11;;;;;;;1999.90;999.90;;;9.20;99.90;;;;;;5075514;28;20040;-77
2023/03/09 07:08:37;;;;;;;1999.90;999.90;;;9.30;99.90;;;;;;5076139;28;20068;-79
2023/03/09 07:11:03;;;;;;;1999.90;999.90;;;9.40;99.90;;;;;;5073007;28;20040;-77
2023/03/09 07:13:29;;;;;;;1999.90;999.90;;;9.60;99.90;;;;;;5076198;28;20530;-77
2023/03/09 07:15:55;;;;;;;1999.90;999.90;;;9.70;99.90;;;;;;5078204;28;20036;-77
2023/03/09 07:18:21;;;;;;;1999.90;999.90;;;9.80;99.90;;;;;;5078090;28;20382;-77
2023/03/09 07:20:46;;;;;;;1999.90;999.90;;;9.80;99.90;;;;;;5078654;28;20029;-77
2023/03/09 07:23:12;;;;;;;1999.90;999.90;;;9.90;99.90;;;;;;5078361;28;20038;-77
2023/03/09 07:25:38;;;;;;;1999.90;999.90;;;9.90;99.90;;;;;;5079982;28;20033;-77
2023/03/09 07:28:05;;;;;;;1999.90;999.90;;;9.90;99.90;;;;;;5079707;28;20088;-76
2023/03/09 07:30:31;;;;;;;1999.90;999.90;;;10.00;99.90;;;;;;5076933;28;20103;-77
2023/03/09 07:32:58;;;;;;;1999.90;999.90;;;10.00;99.90;;;;;;5076871;28;20107;-77
2023/03/09 07:35:24;;;;;;;1999.90;999.90;;;10.00;99.90;;;;;;5077246;28;20044;-77
2023/03/09 07:37:49;;;;;;;1999.90;999.90;;;10.10;99.90;;;;;;5077727;28;20509;-77
2023/03/09 07:40:15;;;;;;;1999.90;999.90;;;10.20;99.90;;;;;;5077917;28;20152;-77
2023/03/09 07:42:42;;;;;;;1999.90;999.90;;;10.40;99.90;;;;;;5077733;28;20110;-77
2023/03/09 07:45:08;;;;;;;1999.90;999.90;;;10.40;99.90;;;;;;5077449;28;20025;-77
2023/03/09 07:47:34;;;;;;;1999.90;999.90;;;10.40;99.90;;;;;;5077494;28;20053;-76
2023/03/09 07:50:00;;;;;;;1999.90;999.90;;;10.40;99.90;;;;;;5076181;28;20099;-77
2023/03/09 07:52:30;;;;;;;1999.90;999.90;;;10.20;99.90;;;;;;5077408;28;20534;-77
2023/03/09 07:55:00;;;;;;;1999.90;999.90;;;10.00;99.90;;;;;;5077014;28;20025;-77
2023/03/09 07:57:30;;;;;;;1999.90;999.90;;;9.90;99.90;;;;;;5077430;28;20041;-77
2023/03/09 07:59:56;;;;;;;1999.90;999.90;;;9.70;99.90;;;;;;5076150;28;20044;-78
2023/03/09 08:02:22;;;;;;;1999.90;999.90;;;9.70;99.90;;;;;;5077537;28;20033;-77
2023/03/09 08:04:47;;;;;;;1999.90;999.90;;;9.60;99.90;;;;;;5077651;28;20033;-77
2023/03/09 08:07:14;;;;;;;1999.90;999.90;;;9.60;99.90;;;;;;5077396;28;20368;-77
2023/03/09 08:09:39;;;;;;;1999.90;999.90;;;9.60;99.90;;;;;;5077917;28;20477;-77
2023/03/09 08:12:05;;;;;;;1999.90;999.90;;;9.70;99.90;;;;;;5077599;28;20036;-77
2023/03/09 08:14:31;;;;;;;1999.90;999.90;;;9.70;99.90;;;;;;5077036;28;20045;-77
2023/03/09 08:16:57;;;;;;;1999.90;999.90;;;9.80;99.90;;;;;;5075649;28;20025;-77
2023/03/09 08:19:22;;;;;;;1999.90;999.90;;;10.00;99.90;;;;;;5077465;28;20043;-77
2023/03/09 08:21:49;;;;;;;1999.90;999.90;;;10.10;99.90;;;;;;5076980;28;20079;-76
2023/03/09 08:24:15;;;;;;;1999.90;999.90;;;10.20;99.90;;;;;;5075896;28;20060;-78
2023/03/09 08:26:42;;;;;;;1999.90;999.90;;;10.30;99.90;;;;;;5075837;28;20025;-78
2023/03/09 08:29:07;;;;;;;1999.90;999.90;;;10.30;99.90;;;;;;5075681;28;20399;-77
2023/03/09 08:31:35;;;;;;;1999.90;999.90;;;10.30;99.90;;;;;;5075035;28;20035;-75
2023/03/09 08:34:01;;;;;;;1999.90;999.90;;;10.40;99.90;;;;;;5075140;28;20037;-75
2023/03/09 08:36:27;;;;;;;1999.90;999.90;;;10.50;99.90;;;;;;5075076;28;20048;-76
2023/03/09 08:38:52;;;;;;;1999.90;999.90;;;10.60;99.90;;;;;;5076252;28;20482;-75
2023/03/09 08:41:19;;;;;;;1999.90;999.90;;;10.60;99.90;;;;;;5074999;28;20091;-76
2023/03/09 08:43:45;;;;;;;1999.90;999.90;;;10.60;99.90;;;;;;5077583;28;20025;-75
2023/03/09 08:46:11;;;;;;;1999.90;999.90;;;10.60;99.90;;;;;;5076853;28;20025;-78
2023/03/09 08:48:37;;;;;;;1999.90;999.90;;;10.60;99.90;;;;;;5075164;28;20099;-77
2023/03/09 08:51:05;;;;;;;1999.90;999.90;;;10.60;99.90;;;;;;5076510;28;20083;-78
2023/03/09 08:53:32;;;;;;;1999.90;999.90;;;10.70;99.90;;;;;;5075577;28;20057;-77
2023/03/09 08:55:57;;;;;;;1999.90;999.90;;;10.70;99.90;;;;;;5077291;28;20025;-78
2023/03/09 08:58:23;;;;;;;1999.90;999.90;;;10.70;99.90;;;;;;5076143;28;20036;-78
2023/03/09 09:00:49;;;;;;;1999.90;999.90;;;10.70;99.90;;;;;;5075597;28;20117;-78
2023/03/09 09:03:15;;;;;;;1999.90;999.90;;;10.70;99.90;;;;;;5076198;28;20390;-76
2023/03/09 09:05:40;;;;;;;1999.90;999.90;;;10.60;99.90;;;;;;5075419;28;20040;-76
2023/03/09 09:08:06;;;;;;;1999.90;999.90;;;10.60;99.90;;;;;;5075465;28;20083;-77
2023/03/09 09:10:32;;;;;;;1999.90;999.90;;;10.70;99.90;;;;;;5075673;28;20060;-78
2023/03/09 09:12:57;;;;;;;1999.90;999.90;;;10.70;99.90;;;;;;5059177;28;20036;-76
2023/03/09 09:15:23;;;;;;;1999.90;999.90;;;10.70;99.90;;;;;;5053789;28;20045;-77
2023/03/09 09:17:48;;;;;;;1999.90;999.90;;;10.70;99.90;;;;;;5056827;28;20057;-76
2023/03/09 09:20:14;;;;;;;1999.90;999.90;;;10.70;99.90;;;;;;5062390;28;20060;-77
2023/03/09 09:22:41;;;;;;;1999.90;999.90;;;10.70;99.90;;;;;;5063302;28;20554;-77
2023/03/09 09:25:08;;;;;;;1999.90;999.90;;;10.60;99.90;;;;;;5064147;28;20513;-77
2023/03/09 09:27:34;;;;;;;1999.90;999.90;;;10.70;99.90;;;;;;5074140;28;20124;-77
2023/03/09 09:30:01;;;;;;;1999.90;999.90;;;10.70;99.90;;;;;;5075009;28;20033;-77
2023/03/09 09:32:28;;;;;;;1999.90;999.90;;;10.80;99.90;;;;;;5073875;28;20522;-78
2023/03/09 09:34:54;;;;;;;1999.90;999.90;;;10.80;99.90;;;;;;5072838;28;20048;-76
2023/03/09 09:37:19;;;;;;;1999.90;999.90;;;10.80;99.90;;;;;;5074762;28;20039;-78
2023/03/09 09:39:45;;;;;;;1999.90;999.90;;;10.80;99.90;;;;;;5056100;28;20574;-78
2023/03/09 09:42:23;;;;;;;1999.90;999.90;;;10.80;99.90;;;;;;5055914;28;20037;-76
2023/03/09 09:44:59;;;;;;;1999.90;999.90;;;10.80;99.90;;;;;;5062696;28;20503;-77
2023/03/09 09:47:28;;;;;;;1999.90;999.90;;;10.80;99.90;;;;;;5074478;28;20033;-78
2023/03/09 09:49:56;;;;;;;1999.90;999.90;;;10.80;99.90;;;;;;5080194;28;20075;-78
2023/03/09 09:52:50;;;;;;;1999.90;999.90;;;10.80;99.90;;;;;;5069258;28;20809;-79
2023/03/09 09:55:41;;;;;;;1999.90;999.90;;;11.00;99.90;;;;;;5075189;28;20108;-80
2023/03/09 09:58:27;;;;;;;1999.90;999.90;;;11.10;99.90;;;;;;5073895;28;20769;-80
2023/03/09 10:00:54;;;;;;;1999.90;999.90;;;11.20;99.90;;;;;;5062690;28;20526;-79
2023/03/09 10:03:31;;;;;;;1999.90;999.90;;;11.30;99.90;;;;;;5054773;28;20550;-81
2023/03/09 10:06:05;;;;;;;1999.90;999.90;;;11.40;99.90;;;;;;5053691;28;20041;-82
2023/03/09 10:08:52;;;;;;;1999.90;999.90;;;11.50;99.90;;;;;;5070308;28;20045;-79
2023/03/09 10:11:29;;;;;;;1999.90;999.90;;;11.40;99.90;;;;;;5069323;28;20045;-79
2023/03/09 10:14:12;;;;;;;1999.90;999.90;;;11.40;99.90;;;;;;5055005;28;20041;-80
2023/03/09 10:16:43;;;;;;;1999.90;999.90;;;11.30;99.90;;;;;;5053332;28;20068;-80
2023/03/09 10:19:15;;;;;;;1999.90;999.90;;;11.20;99.90;;;;;;5053122;28;20037;-78
2023/03/09 10:21:52;;;;;;;1999.90;999.90;;;11.20;99.90;;;;;;5067498;28;20519;-75
2023/03/09 10:24:22;;;;;;;1999.90;999.90;;;11.30;99.90;;;;;;5072528;28;20122;-77
2023/03/09 10:26:57;;;;;;;1999.90;999.90;;;11.50;99.90;;;;;;5074713;28;20517;-77
2023/03/09 10:29:50;;;;;;;1999.90;999.90;;;11.40;99.90;;;;;;5075127;28;20099;-77
2023/03/09 10:32:24;;;;;;;1999.90;999.90;;;11.50;99.90;;;;;;5054987;28;20030;-77
2023/03/09 10:34:59;;;;;;;1999.90;999.90;;;11.50;99.90;;;;;;5054213;28;20041;-77
2023/03/09 10:37:32;;;;;;;1999.90;999.90;;;11.60;99.90;;;;;;5054995;28;20084;-77
2023/03/09 10:40:07;;;;;;;1999.90;999.90;;;11.80;99.90;;;;;;5074621;28;20123;-77
2023/03/09 10:42:36;;;;;;;1999.90;999.90;;;11.80;99.90;;;;;;5073529;28;20025;-75
2023/03/09 10:45:14;;;;;;;1999.90;999.90;;;11.90;99.90;;;;;;5073197;28;20029;-75
2023/03/09 10:47:57;;;;;;;1999.90;999.90;;;12.00;99.90;;;;;;5076771;28;20553;-75
2023/03/09 10:50:25;;;;;;;1999.90;999.90;;;12.30;99.90;;;;;;5077886;28;20072;-75
2023/03/09 10:52:53;;;;;;;1999.90;999.90;;;12.50;99.90;;;;;;5076293;28;20403;-75
2023/03/09 10:55:30;;;;;;;1999.90;999.90;;;12.60;99.90;;;;;;5077310;28;20048;-76
2023/03/09 10:57:58;;;;;;;1999.90;999.90;;;12.80;99.90;;;;;;5078488;28;20139;-75
2023/03/09 11:00:25;;;;;;;1999.90;999.90;;;13.10;99.90;;;;;;5077787;28;20037;-77
2023/03/09 11:02:56;;;;;;;1999.90;999.90;;;13.00;99.90;;;;;;5076108;28;20107;-76
2023/03/09 11:05:24;;;;;;;1999.90;999.90;;;13.20;99.90;;;;;;5076998;28;20029;-76
2023/03/09 11:07:53;;;;;;;1999.90;999.90;;;13.20;99.90;;;;;;5063913;28;20035;-76
2023/03/09 11:10:34;;;;;;;1999.90;999.90;;;13.30;99.90;;;;;;5090902;28;20040;-77
2023/03/09 11:13:02;;;;;;;1999.90;999.90;;;13.50;99.90;;;;;;5068150;28;20036;-76
2023/03/09 11:15:33;;;;;;;1999.90;999.90;;;13.40;99.90;;;;;;5076519;28;20128;-77
2023/03/09 11:18:01;;;;;;;1999.90;999.90;;;13.40;99.90;;;;;;5069285;28;20038;-77
2023/03/09 11:20:31;;;;;;;1999.90;999.90;;;13.30;99.90;;;;;;5055422;28;20067;-77
2023/03/09 11:23:15;;;;;;;1999.90;999.90;;;13.20;99.90;;;;;;5054612;28;20049;-78
2023/03/09 11:26:01;;;;;;;1999.90;999.90;;;13.20;99.90;;;;;;5055787;28;20514;-76
2023/03/09 11:28:58;;;;;;;1999.90;999.90;;;13.20;99.90;;;;;;5057127;28;20124;-77
2023/03/09 11:31:31;;;;;;;1999.90;999.90;;;13.40;99.90;;;;;;5056184;28;20045;-78
2023/03/09 11:33:58;;;;;;;1999.90;999.90;;;13.50;99.90;;;;;;5057710;28;20507;-78
2023/03/09 11:36:50;;;;;;;1999.90;999.90;;;13.20;99.90;;;;;;5077788;28;20036;-80
2023/03/09 11:39:21;;;;;;;1999.90;999.90;;;13.20;99.90;;;;;;5075978;28;20136;-77
2023/03/09 11:41:49;;;;;;;1999.90;999.90;;;13.40;99.90;;;;;;5077323;28;20090;-76
2023/03/09 11:44:36;;;;;;;1999.90;999.90;;;13.50;99.90;;;;;;5076110;28;20061;-79
2023/03/09 11:47:33;;;;;;;1999.90;999.90;;;13.60;99.90;;;;;;5056613;28;20034;-75
2023/03/09 11:50:12;;;;;;;1999.90;999.90;;;13.80;99.90;;;;;;5056455;28;20447;-76
2023/03/09 11:52:45;;;;;;;1999.90;999.90;;;13.80;99.90;;;;;;5055329;28;20188;-76
2023/03/09 11:55:18;;;;;;;1999.90;999.90;;;13.90;99.90;;;;;;5062073;28;20067;-74
2023/03/09 11:57:47;;;;;;;1999.90;999.90;;;13.80;99.90;;;;;;5076096;28;20033;-76
2023/03/09 12:00:18;;;;;;;1999.90;999.90;;;13.70;99.90;;;;;;5065015;28;20037;-75
2023/03/09 12:02:46;;;;;;;1999.90;999.90;;;13.60;99.90;;;;;;5074660;28;20029;-75
2023/03/09 12:05:14;;;;;;;1999.90;999.90;;;13.40;99.90;;;;;;5064446;28;20091;-75
2023/03/09 12:07:58;;;;;;;1999.90;999.90;;;13.40;99.90;;;;;;5056633;28;20037;-75
2023/03/09 12:10:35;;;;;;;1999.90;999.90;;;13.50;99.90;;;;;;5056591;28;20041;-74